sensor_id;sensor_type;location;lat;lon;timestamp;pressure;altitude;pressure_sealevel;temperature;humidity
43934;BME280;59081;42.706;23.306;2022-10-19T00:01:18;95893.16;;;8.05;61.95
43934;BME280;59081;42.706;23.306;2022-10-19T00:03:46;95791.00;;;7.31;61.85
43934;BME280;59081;42.706;23.306;2022-10-19T00:06:17;95735.63;;;6.99;62.18
43934;BME280;59081;42.706;23.306;2022-10-19T00:08:46;95769.16;;;7.17;62.25
43934;BME280;59081;42.706;23.306;2022-10-19T00:11:12;95812.06;;;7.45;62.71
43934;BME280;59081;42.706;23.306;2022-10-19T00:13:38;95828.44;;;7.56;62.24
43934;BME280;59081;42.706;23.306;2022-10-19T00:16:12;95822.16;;;7.59;62.41
43934;BME280;59081;42.706;23.306;2022-10-19T00:18:38;95854.19;;;7.76;62.30
43934;BME280;59081;42.706;23.306;2022-10-19T00:21:06;95736.00;;;7.05;62.75
43934;BME280;59081;42.706;23.306;2022-10-19T00:23:32;95672.91;;;6.56;63.19
43934;BME280;59081;42.706;23.306;2022-10-19T00:25:58;95773.84;;;7.20;63.03
43934;BME280;59081;42.706;23.306;2022-10-19T00:28:24;95788.25;;;7.35;63.02
43934;BME280;59081;42.706;23.306;2022-10-19T00:30:50;95830.00;;;7.60;63.41
43934;BME280;59081;42.706;23.306;2022-10-19T00:33:15;95842.84;;;7.71;62.35
43934;BME280;59081;42.706;23.306;2022-10-19T00:35:48;95780.84;;;7.28;62.23
43934;BME280;59081;42.706;23.306;2022-10-19T00:38:15;95784.75;;;7.27;63.28
43934;BME280;59081;42.706;23.306;2022-10-19T00:40:42;95664.72;;;6.49;63.21
43934;BME280;59081;42.706;23.306;2022-10-19T00:43:19;95734.84;;;6.98;63.62
43934;BME280;59081;42.706;23.306;2022-10-19T00:45:45;95720.03;;;6.89;63.54
43934;BME280;59081;42.706;23.306;2022-10-19T00:48:14;95675.59;;;6.60;63.61
43934;BME280;59081;42.706;23.306;2022-10-19T00:50:42;95741.09;;;6.99;63.86
43934;BME280;59081;42.706;23.306;2022-10-19T00:53:08;95724.69;;;6.95;63.92
43934;BME280;59081;42.706;23.306;2022-10-19T00:55:36;95690.41;;;6.70;63.76
43934;BME280;59081;42.706;23.306;2022-10-19T00:58:03;95834.63;;;7.67;63.78
43934;BME280;59081;42.706;23.306;2022-10-19T01:00:29;95838.56;;;7.66;63.87
43934;BME280;59081;42.706;23.306;2022-10-19T01:02:55;95735.94;;;7.12;63.63
43934;BME280;59081;42.706;23.306;2022-10-19T01:05:23;95712.16;;;6.98;63.93
43934;BME280;59081;42.706;23.306;2022-10-19T01:07:49;95776.47;;;7.38;63.78
43934;BME280;59081;42.706;23.306;2022-10-19T01:10:15;95709.09;;;6.89;63.97
43934;BME280;59081;42.706;23.306;2022-10-19T01:15:47;95677.63;;;6.42;64.63
43934;BME280;59081;42.706;23.306;2022-10-19T01:18:38;95805.66;;;6.96;65.31
43934;BME280;59081;42.706;23.306;2022-10-19T01:21:24;95744.00;;;6.63;65.28
43934;BME280;59081;42.706;23.306;2022-10-19T01:27:26;95798.59;;;7.10;64.17
43934;BME280;59081;42.706;23.306;2022-10-19T01:38:44;95788.75;;;7.16;64.55
43934;BME280;59081;42.706;23.306;2022-10-19T01:41:20;95680.00;;;6.40;64.60
43934;BME280;59081;42.706;23.306;2022-10-19T01:43:57;95724.06;;;6.67;64.85
43934;BME280;59081;42.706;23.306;2022-10-19T01:46:38;95782.88;;;7.14;64.85
43934;BME280;59081;42.706;23.306;2022-10-19T01:49:16;95594.59;;;5.97;64.61
43934;BME280;59081;42.706;23.306;2022-10-19T01:51:48;95545.88;;;5.63;64.74
43934;BME280;59081;42.706;23.306;2022-10-19T01:54:18;95637.88;;;6.23;64.35
43934;BME280;59081;42.706;23.306;2022-10-19T01:56:47;95639.41;;;6.24;64.64
43934;BME280;59081;42.706;23.306;2022-10-19T01:59:15;95736.97;;;6.62;65.17
43934;BME280;59081;42.706;23.306;2022-10-19T02:01:45;95680.16;;;5.93;66.16
43934;BME280;59081;42.706;23.306;2022-10-19T02:04:15;95628.69;;;5.53;65.80
43934;BME280;59081;42.706;23.306;2022-10-19T02:06:42;95609.13;;;5.54;65.44
43934;BME280;59081;42.706;23.306;2022-10-19T02:09:08;95575.22;;;5.45;65.17
43934;BME280;59081;42.706;23.306;2022-10-19T02:11:35;95628.22;;;5.83;64.98
43934;BME280;59081;42.706;23.306;2022-10-19T02:14:08;95552.19;;;5.39;64.79
43934;BME280;59081;42.706;23.306;2022-10-19T02:16:45;95633.66;;;5.93;64.53
43934;BME280;59081;42.706;23.306;2022-10-19T02:19:14;95565.06;;;5.49;64.23
43934;BME280;59081;42.706;23.306;2022-10-19T02:21:41;95687.84;;;6.38;64.32
43934;BME280;59081;42.706;23.306;2022-10-19T02:24:06;95729.53;;;6.70;64.52
43934;BME280;59081;42.706;23.306;2022-10-19T02:26:32;95657.38;;;6.28;64.04
43934;BME280;59081;42.706;23.306;2022-10-19T02:28:58;95644.53;;;6.18;63.99
43934;BME280;59081;42.706;23.306;2022-10-19T02:31:24;95674.53;;;6.36;63.77
43934;BME280;59081;42.706;23.306;2022-10-19T02:33:50;95619.59;;;6.06;63.95
43934;BME280;59081;42.706;23.306;2022-10-19T02:36:17;95657.75;;;6.27;63.05
43934;BME280;59081;42.706;23.306;2022-10-19T02:38:43;95711.53;;;6.66;63.38
43934;BME280;59081;42.706;23.306;2022-10-19T02:41:23;95687.00;;;6.48;63.61
43934;BME280;59081;42.706;23.306;2022-10-19T02:43:58;95675.31;;;6.40;63.84
43934;BME280;59081;42.706;23.306;2022-10-19T02:46:57;95660.50;;;6.27;63.71
43934;BME280;59081;42.706;23.306;2022-10-19T02:49:26;95660.50;;;6.27;63.97
43934;BME280;59081;42.706;23.306;2022-10-19T02:52:03;95604.75;;;5.92;63.97
43934;BME280;59081;42.706;23.306;2022-10-19T02:54:29;95739.66;;;6.77;64.26
43934;BME280;59081;42.706;23.306;2022-10-19T02:56:55;95766.97;;;6.91;64.30
43934;BME280;59081;42.706;23.306;2022-10-19T02:59:20;95649.22;;;6.18;64.11
43934;BME280;59081;42.706;23.306;2022-10-19T03:01:46;95652.31;;;6.23;64.33
43934;BME280;59081;42.706;23.306;2022-10-19T03:04:12;95650.78;;;6.15;64.33
43934;BME280;59081;42.706;23.306;2022-10-19T03:06:38;95594.66;;;5.72;64.59
43934;BME280;59081;42.706;23.306;2022-10-19T03:09:03;95668.72;;;6.27;64.91
43934;BME280;59081;42.706;23.306;2022-10-19T03:11:29;95638.34;;;6.00;65.07
43934;BME280;59081;42.706;23.306;2022-10-19T03:13:55;95698.41;;;6.36;65.33
43934;BME280;59081;42.706;23.306;2022-10-19T03:16:20;95608.31;;;5.72;65.18
43934;BME280;59081;42.706;23.306;2022-10-19T03:18:49;95629.00;;;5.83;65.56
43934;BME280;59081;42.706;23.306;2022-10-19T03:21:15;95680.09;;;6.15;65.29
43934;BME280;59081;42.706;23.306;2022-10-19T03:23:40;95708.94;;;6.37;65.52
43934;BME280;59081;42.706;23.306;2022-10-19T03:26:08;95712.84;;;6.36;65.58
43934;BME280;59081;42.706;23.306;2022-10-19T03:28:36;95639.53;;;5.92;65.82
43934;BME280;59081;42.706;23.306;2022-10-19T03:31:01;95679.72;;;6.13;65.40
43934;BME280;59081;42.706;23.306;2022-10-19T03:33:27;95671.91;;;6.08;65.50
43934;BME280;59081;42.706;23.306;2022-10-19T03:36:12;95748.72;;;6.63;65.61
43934;BME280;59081;42.706;23.306;2022-10-19T03:38:37;95682.44;;;6.20;65.38
43934;BME280;59081;42.706;23.306;2022-10-19T03:41:06;95606.41;;;5.65;65.54
43934;BME280;59081;42.706;23.306;2022-10-19T03:43:32;95643.03;;;5.92;69.82
43934;BME280;59081;42.706;23.306;2022-10-19T03:45:58;95703.88;;;6.32;66.30
43934;BME280;59081;42.706;23.306;2022-10-19T03:48:23;95675.03;;;6.06;65.65
43934;BME280;59081;42.706;23.306;2022-10-19T03:51:00;95650.09;;;5.86;65.81
43934;BME280;59081;42.706;23.306;2022-10-19T03:53:26;95603.31;;;5.52;65.88
43934;BME280;59081;42.706;23.306;2022-10-19T03:55:51;95644.56;;;6.08;79.38
43934;BME280;59081;42.706;23.306;2022-10-19T03:58:17;95755.03;;;7.26;81.74
43934;BME280;59081;42.706;23.306;2022-10-19T04:00:42;95622.19;;;6.27;71.91
43934;BME280;59081;42.706;23.306;2022-10-19T04:03:10;95659.28;;;6.39;68.33
43934;BME280;59081;42.706;23.306;2022-10-19T04:05:35;95680.72;;;6.51;66.90
43934;BME280;59081;42.706;23.306;2022-10-19T04:08:01;95614.13;;;6.06;66.22
43934;BME280;59081;42.706;23.306;2022-10-19T04:10:26;95663.22;;;6.34;66.32
43934;BME280;59081;42.706;23.306;2022-10-19T04:12:52;95708.81;;;6.62;66.42
43934;BME280;59081;42.706;23.306;2022-10-19T04:15:17;95685.06;;;6.41;66.09
43934;BME280;59081;42.706;23.306;2022-10-19T04:17:42;95628.97;;;6.05;66.17
43934;BME280;59081;42.706;23.306;2022-10-19T04:20:08;95680.41;;;6.35;65.93
43934;BME280;59081;42.706;23.306;2022-10-19T04:22:34;95616.09;;;5.94;66.16
43934;BME280;59081;42.706;23.306;2022-10-19T04:24:59;95593.09;;;5.74;65.98
43934;BME280;59081;42.706;23.306;2022-10-19T04:27:25;95648.47;;;6.10;66.31
43934;BME280;59081;42.706;23.306;2022-10-19T04:29:50;95666.03;;;6.20;66.25
43934;BME280;59081;42.706;23.306;2022-10-19T04:32:16;95669.53;;;6.17;66.53
43934;BME280;59081;42.706;23.306;2022-10-19T04:34:41;95629.38;;;5.89;66.34
43934;BME280;59081;42.706;23.306;2022-10-19T04:37:07;95591.16;;;5.64;66.40
43934;BME280;59081;42.706;23.306;2022-10-19T04:39:32;95622.34;;;5.88;66.56
43934;BME280;59081;42.706;23.306;2022-10-19T04:41:58;95561.16;;;5.43;66.54
43934;BME280;59081;42.706;23.306;2022-10-19T04:44:23;95613.78;;;5.75;65.78
43934;BME280;59081;42.706;23.306;2022-10-19T04:46:49;95731.56;;;6.52;65.31
43934;BME280;59081;42.706;23.306;2022-10-19T04:49:14;95670.31;;;6.14;65.29
43934;BME280;59081;42.706;23.306;2022-10-19T04:51:40;95655.16;;;5.77;66.19
43934;BME280;59081;42.706;23.306;2022-10-19T04:54:05;95644.66;;;5.69;66.09
43934;BME280;59081;42.706;23.306;2022-10-19T04:56:31;95604.13;;;5.28;66.08
43934;BME280;59081;42.706;23.306;2022-10-19T04:58:58;95726.63;;;5.83;67.20
43934;BME280;59081;42.706;23.306;2022-10-19T05:01:25;95654.06;;;5.39;66.90
43934;BME280;59081;42.706;23.306;2022-10-19T05:03:59;95714.13;;;5.78;66.69
43934;BME280;59081;42.706;23.306;2022-10-19T05:06:25;95720.00;;;5.87;66.05
43934;BME280;59081;42.706;23.306;2022-10-19T05:08:51;95609.59;;;5.10;65.60
43934;BME280;59081;42.706;23.306;2022-10-19T05:11:17;95601.44;;;4.82;65.96
43934;BME280;59081;42.706;23.306;2022-10-19T05:13:43;95660.31;;;5.11;66.38
43934;BME280;59081;42.706;23.306;2022-10-19T05:16:11;95570.22;;;4.54;65.98
43934;BME280;59081;42.706;23.306;2022-10-19T05:18:38;95645.09;;;4.93;66.19
43934;BME280;59081;42.706;23.306;2022-10-19T05:23:33;95689.97;;;5.38;65.64
43934;BME280;59081;42.706;23.306;2022-10-19T05:28:31;95587.00;;;4.74;65.75
43934;BME280;59081;42.706;23.306;2022-10-19T05:31:07;95649.00;;;5.23;65.65
43934;BME280;59081;42.706;23.306;2022-10-19T05:33:33;95645.88;;;5.29;65.38
43934;BME280;59081;42.706;23.306;2022-10-19T05:35:59;95679.03;;;5.59;65.03
43934;BME280;59081;42.706;23.306;2022-10-19T05:38:33;95709.06;;;5.87;65.22
43934;BME280;59081;42.706;23.306;2022-10-19T05:40:58;95659.09;;;5.58;64.88
43934;BME280;59081;42.706;23.306;2022-10-19T05:43:24;95652.88;;;5.58;64.75
43934;BME280;59081;42.706;23.306;2022-10-19T05:45:49;95647.78;;;5.56;64.17
43934;BME280;59081;42.706;23.306;2022-10-19T05:48:15;95643.91;;;5.54;64.79
43934;BME280;59081;42.706;23.306;2022-10-19T05:50:40;95592.38;;;5.38;64.30
43934;BME280;59081;42.706;23.306;2022-10-19T05:53:16;95637.22;;;5.73;63.89
43934;BME280;59081;42.706;23.306;2022-10-19T05:55:42;95622.78;;;5.65;63.51
43934;BME280;59081;42.706;23.306;2022-10-19T05:58:08;95631.72;;;5.80;63.01
43934;BME280;59081;42.706;23.306;2022-10-19T06:00:33;95625.88;;;5.81;62.36
43934;BME280;59081;42.706;23.306;2022-10-19T06:02:58;95603.22;;;5.74;61.81
43934;BME280;59081;42.706;23.306;2022-10-19T06:05:24;95595.84;;;5.71;61.89
43934;BME280;59081;42.706;23.306;2022-10-19T06:07:49;95613.38;;;5.87;61.23
43934;BME280;59081;42.706;23.306;2022-10-19T06:10:15;95591.16;;;5.64;61.22
43934;BME280;59081;42.706;23.306;2022-10-19T06:12:40;95655.88;;;6.10;61.71
43934;BME280;59081;42.706;23.306;2022-10-19T06:15:06;95660.56;;;6.16;61.15
43934;BME280;59081;42.706;23.306;2022-10-19T06:17:32;95668.69;;;6.34;60.98
43934;BME280;59081;42.706;23.306;2022-10-19T06:19:57;95638.69;;;6.13;59.44
43934;BME280;59081;42.706;23.306;2022-10-19T06:22:22;95663.59;;;6.40;59.04
43934;BME280;59081;42.706;23.306;2022-10-19T06:24:48;95691.28;;;6.49;59.32
43934;BME280;59081;42.706;23.306;2022-10-19T06:27:14;95682.69;;;6.50;59.08
43934;BME280;59081;42.706;23.306;2022-10-19T06:29:39;95664.63;;;6.67;58.52
43934;BME280;59081;42.706;23.306;2022-10-19T06:32:05;95654.41;;;6.75;57.91
43934;BME280;59081;42.706;23.306;2022-10-19T06:34:30;95646.03;;;6.96;57.07
43934;BME280;59081;42.706;23.306;2022-10-19T06:36:55;95666.63;;;7.18;56.90
43934;BME280;59081;42.706;23.306;2022-10-19T06:39:21;95693.69;;;7.61;55.73
43934;BME280;59081;42.706;23.306;2022-10-19T06:41:46;95678.72;;;7.69;55.07
43934;BME280;59081;42.706;23.306;2022-10-19T06:44:12;95647.09;;;7.61;54.75
43934;BME280;59081;42.706;23.306;2022-10-19T06:46:37;95723.53;;;8.34;54.33
43934;BME280;59081;42.706;23.306;2022-10-19T06:49:03;95684.22;;;8.44;53.67
43934;BME280;59081;42.706;23.306;2022-10-19T06:51:30;95621.25;;;8.30;52.58
43934;BME280;59081;42.706;23.306;2022-10-19T06:53:56;95631.34;;;8.67;51.52
43934;BME280;59081;42.706;23.306;2022-10-19T06:56:22;95655.78;;;9.15;51.27
43934;BME280;59081;42.706;23.306;2022-10-19T06:58:48;95617.06;;;9.29;50.03
43934;BME280;59081;42.706;23.306;2022-10-19T07:01:14;95683.91;;;10.16;49.19
43934;BME280;59081;42.706;23.306;2022-10-19T07:03:40;95677.81;;;10.28;48.69
43934;BME280;59081;42.706;23.306;2022-10-19T07:06:09;95731.84;;;10.81;47.67
43934;BME280;59081;42.706;23.306;2022-10-19T07:08:36;95642.69;;;10.12;47.49
43934;BME280;59081;42.706;23.306;2022-10-19T07:11:05;95606.38;;;9.78;47.75
43934;BME280;59081;42.706;23.306;2022-10-19T07:13:30;95658.53;;;10.48;47.09
43934;BME280;59081;42.706;23.306;2022-10-19T07:16:01;95711.03;;;10.97;46.56
43934;BME280;59081;42.706;23.306;2022-10-19T07:18:30;95663.44;;;10.76;46.35
43934;BME280;59081;42.706;23.306;2022-10-19T07:21:01;95696.94;;;11.11;46.57
43934;BME280;59081;42.706;23.306;2022-10-19T07:23:28;95662.47;;;11.03;46.43
43934;BME280;59081;42.706;23.306;2022-10-19T07:25:54;95697.31;;;11.29;46.08
43934;BME280;59081;42.706;23.306;2022-10-19T07:28:26;95672.84;;;11.31;45.09
43934;BME280;59081;42.706;23.306;2022-10-19T07:30:51;95614.91;;;10.99;44.81
43934;BME280;59081;42.706;23.306;2022-10-19T07:33:17;95619.56;;;11.02;45.01
43934;BME280;59081;42.706;23.306;2022-10-19T07:35:42;95685.44;;;11.65;44.73
43934;BME280;59081;42.706;23.306;2022-10-19T07:38:08;95658.88;;;11.71;43.80
43934;BME280;59081;42.706;23.306;2022-10-19T07:40:34;95699.94;;;11.85;44.16
43934;BME280;59081;42.706;23.306;2022-10-19T07:42:59;95643.28;;;11.80;43.11
43934;BME280;59081;42.706;23.306;2022-10-19T07:45:25;95585.38;;;11.32;43.52
43934;BME280;59081;42.706;23.306;2022-10-19T07:47:50;95594.28;;;11.84;42.56
43934;BME280;59081;42.706;23.306;2022-10-19T07:50:16;95666.53;;;12.41;42.22
43934;BME280;59081;42.706;23.306;2022-10-19T07:52:41;95571.44;;;11.84;42.16
43934;BME280;59081;42.706;23.306;2022-10-19T07:55:07;95600.75;;;11.78;42.65
43934;BME280;59081;42.706;23.306;2022-10-19T07:57:32;95576.81;;;12.04;41.73
43934;BME280;59081;42.706;23.306;2022-10-19T07:59:58;95607.41;;;12.51;41.29
43934;BME280;59081;42.706;23.306;2022-10-19T08:02:23;95606.03;;;12.84;40.90
43934;BME280;59081;42.706;23.306;2022-10-19T08:04:49;95565.00;;;12.96;40.18
43934;BME280;59081;42.706;23.306;2022-10-19T08:07:15;95610.13;;;13.43;39.63
43934;BME280;59081;42.706;23.306;2022-10-19T08:09:40;95615.59;;;13.69;39.11
43934;BME280;59081;42.706;23.306;2022-10-19T08:12:06;95565.94;;;13.52;38.79
43934;BME280;59081;42.706;23.306;2022-10-19T08:14:31;95644.06;;;14.16;38.25
43934;BME280;59081;42.706;23.306;2022-10-19T08:16:57;95610.53;;;14.23;38.15
43934;BME280;59081;42.706;23.306;2022-10-19T08:19:22;95583.47;;;14.27;37.75
43934;BME280;59081;42.706;23.306;2022-10-19T08:21:49;95587.59;;;14.67;37.16
43934;BME280;59081;42.706;23.306;2022-10-19T08:24:17;95649.75;;;15.40;36.39
43934;BME280;59081;42.706;23.306;2022-10-19T08:26:43;95590.41;;;15.07;36.25
43934;BME280;59081;42.706;23.306;2022-10-19T08:29:16;95577.66;;;15.18;35.98
43934;BME280;59081;42.706;23.306;2022-10-19T08:31:44;95647.84;;;15.68;36.02
43934;BME280;59081;42.706;23.306;2022-10-19T08:34:10;95550.28;;;15.39;35.57
43934;BME280;59081;42.706;23.306;2022-10-19T08:36:35;95645.31;;;16.38;35.09
43934;BME280;59081;42.706;23.306;2022-10-19T08:39:03;95626.78;;;16.16;35.12
43934;BME280;59081;42.706;23.306;2022-10-19T08:49:18;95531.19;;;16.14;34.18
43934;BME280;59081;42.706;23.306;2022-10-19T08:51:48;95576.44;;;16.23;34.30
43934;BME280;59081;42.706;23.306;2022-10-19T08:54:16;95550.16;;;16.33;34.61
43934;BME280;59081;42.706;23.306;2022-10-19T08:57:12;95622.44;;;16.70;34.73
43934;BME280;59081;42.706;23.306;2022-10-19T08:59:48;95552.19;;;16.42;34.39
43934;BME280;59081;42.706;23.306;2022-10-19T09:02:56;95598.03;;;16.74;34.31
43934;BME280;59081;42.706;23.306;2022-10-19T09:05:36;95524.34;;;16.51;34.36
43934;BME280;59081;42.706;23.306;2022-10-19T09:08:08;95517.97;;;16.69;34.31
43934;BME280;59081;42.706;23.306;2022-10-19T09:10:40;95544.13;;;17.04;33.85
43934;BME280;59081;42.706;23.306;2022-10-19T09:13:19;95536.53;;;16.72;34.26
43934;BME280;59081;42.706;23.306;2022-10-19T09:15:48;95616.75;;;17.16;33.98
43934;BME280;59081;42.706;23.306;2022-10-19T09:18:20;95562.91;;;17.19;34.12
43934;BME280;59081;42.706;23.306;2022-10-19T09:20:52;95506.53;;;17.33;33.48
43934;BME280;59081;42.706;23.306;2022-10-19T09:23:37;95588.34;;;17.92;33.05
43934;BME280;59081;42.706;23.306;2022-10-19T09:26:13;95572.00;;;17.85;33.15
43934;BME280;59081;42.706;23.306;2022-10-19T09:29:09;95502.13;;;17.17;32.94
43934;BME280;59081;42.706;23.306;2022-10-19T09:31:39;95492.09;;;17.67;32.52
43934;BME280;59081;42.706;23.306;2022-10-19T09:34:14;95567.47;;;18.65;32.24
43934;BME280;59081;42.706;23.306;2022-10-19T09:36:51;95545.91;;;18.80;31.56
43934;BME280;59081;42.706;23.306;2022-10-19T09:39:18;95495.88;;;18.62;31.12
43934;BME280;59081;42.706;23.306;2022-10-19T09:41:56;95563.94;;;19.29;30.80
43934;BME280;59081;42.706;23.306;2022-10-19T09:44:23;95516.56;;;18.85;31.09
43934;BME280;59081;42.706;23.306;2022-10-19T09:46:56;95514.03;;;19.01;30.87
43934;BME280;59081;42.706;23.306;2022-10-19T09:49:38;95594.72;;;19.84;30.17
43934;BME280;59081;42.706;23.306;2022-10-19T09:52:04;95518.84;;;19.36;29.99
43934;BME280;59081;42.706;23.306;2022-10-19T09:54:37;95501.28;;;19.70;29.70
43934;BME280;59081;42.706;23.306;2022-10-19T09:57:03;95554.25;;;19.79;30.05
43934;BME280;59081;42.706;23.306;2022-10-19T09:59:35;95591.00;;;19.93;29.88
43934;BME280;59081;42.706;23.306;2022-10-19T10:02:11;95595.91;;;20.18;29.99
43934;BME280;59081;42.706;23.306;2022-10-19T10:04:37;95494.56;;;19.62;29.78
43934;BME280;59081;42.706;23.306;2022-10-19T10:07:03;95483.38;;;20.03;29.61
43934;BME280;59081;42.706;23.306;2022-10-19T10:09:29;95512.88;;;20.04;29.16
43934;BME280;59081;42.706;23.306;2022-10-19T10:11:57;95471.75;;;19.29;28.30
43934;BME280;59081;42.706;23.306;2022-10-19T10:17:00;95484.03;;;20.18;28.09
43934;BME280;59081;42.706;23.306;2022-10-19T10:19:28;95488.38;;;20.19;28.05
43934;BME280;59081;42.706;23.306;2022-10-19T10:21:56;95501.38;;;20.48;28.25
43934;BME280;59081;42.706;23.306;2022-10-19T10:24:25;95520.25;;;21.10;27.78
43934;BME280;59081;42.706;23.306;2022-10-19T10:26:55;95538.84;;;21.45;26.54
43934;BME280;59081;42.706;23.306;2022-10-19T10:29:23;95431.94;;;20.46;26.96
43934;BME280;59081;42.706;23.306;2022-10-19T10:32:11;95527.28;;;21.00;27.66
43934;BME280;59081;42.706;23.306;2022-10-19T10:34:47;95461.78;;;21.24;26.28
43934;BME280;59081;42.706;23.306;2022-10-19T10:37:39;95525.31;;;21.92;25.75
43934;BME280;59081;42.706;23.306;2022-10-19T10:40:18;95441.66;;;21.79;25.35
43934;BME280;59081;42.706;23.306;2022-10-19T10:42:46;95492.13;;;21.31;26.11
43934;BME280;59081;42.706;23.306;2022-10-19T10:45:23;95504.13;;;21.85;25.17
43934;BME280;59081;42.706;23.306;2022-10-19T10:47:50;95403.00;;;20.92;25.41
43934;BME280;59081;42.706;23.306;2022-10-19T10:50:22;95479.03;;;22.13;25.18
43934;BME280;59081;42.706;23.306;2022-10-19T10:52:59;95416.00;;;21.38;24.51
43934;BME280;59081;42.706;23.306;2022-10-19T10:55:25;95424.06;;;21.84;24.49
43934;BME280;59081;42.706;23.306;2022-10-19T10:58:01;95453.03;;;22.35;23.89
43934;BME280;59081;42.706;23.306;2022-10-19T11:00:30;95435.84;;;21.94;24.06
43934;BME280;59081;42.706;23.306;2022-10-19T11:03:15;95371.16;;;21.27;24.41
43934;BME280;59081;42.706;23.306;2022-10-19T11:05:51;95438.50;;;21.54;23.89
43934;BME280;59081;42.706;23.306;2022-10-19T11:08:34;95396.28;;;20.78;23.94
43934;BME280;59081;42.706;23.306;2022-10-19T11:11:41;95481.81;;;22.13;23.66
43934;BME280;59081;42.706;23.306;2022-10-19T11:16:46;95365.25;;;22.34;22.18
43934;BME280;59081;42.706;23.306;2022-10-19T11:19:28;95469.13;;;23.07;21.97
43934;BME280;59081;42.706;23.306;2022-10-19T11:24:57;95454.84;;;22.66;21.60
43934;BME280;59081;42.706;23.306;2022-10-19T11:28:03;95463.25;;;23.27;21.70
43934;BME280;59081;42.706;23.306;2022-10-19T11:30:39;95373.94;;;22.53;21.99
43934;BME280;59081;42.706;23.306;2022-10-19T11:35:51;95385.88;;;23.15;19.95
43934;BME280;59081;42.706;23.306;2022-10-19T11:38:42;95449.22;;;23.10;19.90
43934;BME280;59081;42.706;23.306;2022-10-19T11:41:16;95356.75;;;23.12;19.58
43934;BME280;59081;42.706;23.306;2022-10-19T11:43:55;95389.38;;;23.38;19.65
43934;BME280;59081;42.706;23.306;2022-10-19T11:49:32;95423.09;;;24.07;19.74
43934;BME280;59081;42.706;23.306;2022-10-19T11:52:09;95423.72;;;23.83;19.52
43934;BME280;59081;42.706;23.306;2022-10-19T11:57:33;95360.16;;;24.04;20.16
43934;BME280;59081;42.706;23.306;2022-10-19T12:00:11;95376.97;;;24.15;19.64
43934;BME280;59081;42.706;23.306;2022-10-19T12:05:45;95410.31;;;24.06;20.25
43934;BME280;59081;42.706;23.306;2022-10-19T12:11:25;95402.03;;;24.54;18.67
43934;BME280;59081;42.706;23.306;2022-10-19T12:14:12;95400.41;;;24.94;18.87
43934;BME280;59081;42.706;23.306;2022-10-19T12:16:46;95312.19;;;25.05;18.21
43934;BME280;59081;42.706;23.306;2022-10-19T12:19:28;95337.63;;;25.43;18.63
43934;BME280;59081;42.706;23.306;2022-10-19T12:22:02;95323.47;;;23.85;19.75
43934;BME280;59081;42.706;23.306;2022-10-19T12:24:29;95407.06;;;24.97;19.91
43934;BME280;59081;42.706;23.306;2022-10-19T12:26:56;95309.34;;;24.81;19.44
43934;BME280;59081;42.706;23.306;2022-10-19T12:29:25;95373.19;;;25.27;19.90
43934;BME280;59081;42.706;23.306;2022-10-19T12:31:53;95343.81;;;24.92;20.41
43934;BME280;59081;42.706;23.306;2022-10-19T12:34:29;95399.53;;;25.78;19.81
43934;BME280;59081;42.706;23.306;2022-10-19T12:37:05;95389.34;;;26.26;19.00
43934;BME280;59081;42.706;23.306;2022-10-19T12:39:50;95343.34;;;25.56;18.46
43934;BME280;59081;42.706;23.306;2022-10-19T12:42:42;95381.56;;;24.84;20.46
43934;BME280;59081;42.706;23.306;2022-10-19T12:45:34;95380.59;;;25.06;20.64
43934;BME280;59081;42.706;23.306;2022-10-19T12:48:21;95379.25;;;25.55;20.57
43934;BME280;59081;42.706;23.306;2022-10-19T12:53:27;95381.97;;;25.66;20.67
43934;BME280;59081;42.706;23.306;2022-10-19T12:56:01;95373.63;;;25.55;20.85
43934;BME280;59081;42.706;23.306;2022-10-19T13:01:07;95371.59;;;26.31;20.19
43934;BME280;59081;42.706;23.306;2022-10-19T13:03:36;95307.75;;;26.41;19.85
43934;BME280;59081;42.706;23.306;2022-10-19T13:06:12;95378.66;;;26.69;20.09
43934;BME280;59081;42.706;23.306;2022-10-19T13:08:44;95366.16;;;26.33;19.91
43934;BME280;59081;42.706;23.306;2022-10-19T13:11:12;95346.66;;;25.97;20.34
43934;BME280;59081;42.706;23.306;2022-10-19T13:17:00;95359.91;;;25.65;20.59
43934;BME280;59081;42.706;23.306;2022-10-19T13:19:26;95355.88;;;25.60;20.51
43934;BME280;59081;42.706;23.306;2022-10-19T13:38:18;95357.47;;;26.12;20.00
43934;BME280;59081;42.706;23.306;2022-10-19T13:43:28;95303.63;;;26.10;19.43
43934;BME280;59081;42.706;23.306;2022-10-19T13:46:14;95356.38;;;26.15;20.02
43934;BME280;59081;42.706;23.306;2022-10-19T13:55:02;95340.91;;;26.22;20.43
43934;BME280;59081;42.706;23.306;2022-10-19T14:05:32;95274.59;;;24.48;20.85
43934;BME280;59081;42.706;23.306;2022-10-19T14:08:35;95315.06;;;23.27;22.86
43934;BME280;59081;42.706;23.306;2022-10-19T14:11:25;95242.03;;;22.36;22.99
43934;BME280;59081;42.706;23.306;2022-10-19T14:16:33;95286.94;;;21.75;24.72
43934;BME280;59081;42.706;23.306;2022-10-19T14:18:58;95297.72;;;21.11;25.32
43934;BME280;59081;42.706;23.306;2022-10-19T14:21:33;95317.78;;;21.04;26.40
43934;BME280;59081;42.706;23.306;2022-10-19T14:24:01;95268.47;;;20.27;26.98
43934;BME280;59081;42.706;23.306;2022-10-19T14:26:28;95265.81;;;19.75;27.53
43934;BME280;59081;42.706;23.306;2022-10-19T14:28:57;95231.84;;;19.31;27.93
43934;BME280;59081;42.706;23.306;2022-10-19T14:31:27;95262.69;;;19.42;28.38
43934;BME280;59081;42.706;23.306;2022-10-19T14:33:59;95243.91;;;19.17;28.56
43934;BME280;59081;42.706;23.306;2022-10-19T14:36:31;95264.00;;;19.21;28.67
43934;BME280;59081;42.706;23.306;2022-10-19T14:38:58;95302.78;;;19.39;28.98
43934;BME280;59081;42.706;23.306;2022-10-19T14:43:54;95282.31;;;19.01;29.47
43934;BME280;59081;42.706;23.306;2022-10-19T14:46:19;95266.97;;;18.91;29.64
43934;BME280;59081;42.706;23.306;2022-10-19T14:48:47;95290.22;;;19.03;29.29